createdAt,value
2018-07-11T00:00:26.957Z,1029.98
2018-07-11T00:01:26.951Z,1029.97
2018-07-11T00:02:26.947Z,1029.91
2018-07-11T00:03:26.942Z,1029.98
2018-07-11T00:04:26.937Z,1029.96
2018-07-11T00:05:26.930Z,1030.01
2018-07-11T00:06:26.928Z,1029.99
2018-07-11T00:07:26.925Z,1029.93
2018-07-11T00:08:26.915Z,1029.93
2018-07-11T00:09:26.910Z,1029.85
2018-07-11T00:10:26.905Z,1029.86
2018-07-11T00:11:26.905Z,1029.87
2018-07-11T00:12:26.895Z,1029.85
2018-07-11T00:13:26.892Z,1029.89
2018-07-11T00:14:26.885Z,1029.91
2018-07-11T00:15:26.890Z,1029.91
2018-07-11T00:16:27.125Z,1029.92
2018-07-11T00:17:26.871Z,1029.87
2018-07-11T00:18:26.865Z,1029.84
2018-07-11T00:19:26.859Z,1029.8
2018-07-11T00:20:26.857Z,1029.81
2018-07-11T00:21:26.849Z,1029.79
2018-07-11T00:22:26.845Z,1029.79
2018-07-11T00:23:26.839Z,1029.81
2018-07-11T00:24:26.834Z,1029.84
2018-07-11T00:25:26.829Z,1029.83
2018-07-11T00:26:26.825Z,1029.86
2018-07-11T00:27:26.824Z,1029.86
2018-07-11T00:28:26.814Z,1029.88
2018-07-11T00:29:26.809Z,1029.91
2018-07-11T00:30:26.807Z,1029.9
2018-07-11T00:31:26.799Z,1029.91
2018-07-11T00:32:26.794Z,1029.88
2018-07-11T00:33:26.788Z,1029.85
2018-07-11T00:34:26.783Z,1029.81
2018-07-11T00:35:26.779Z,1029.77
2018-07-11T00:36:26.774Z,1029.75
2018-07-11T00:37:26.960Z,1029.7
2018-07-11T00:38:26.763Z,1029.7
2018-07-11T00:39:26.758Z,1029.74
2018-07-11T00:40:26.752Z,1029.76
2018-07-11T00:41:26.748Z,1029.74
2018-07-11T00:42:26.742Z,1029.74
2018-07-11T00:43:26.737Z,1029.74
2018-07-11T00:44:26.735Z,1029.7
2018-07-11T00:45:26.727Z,1029.7
2018-07-11T00:46:26.722Z,1029.68
2018-07-11T00:47:26.716Z,1029.63
2018-07-11T00:48:26.714Z,1029.64
2018-07-11T00:49:26.709Z,1029.65
2018-07-11T00:50:26.700Z,1029.6
2018-07-11T00:51:26.696Z,1029.59
2018-07-11T00:52:26.690Z,1029.6
2018-07-11T00:53:26.684Z,1029.61
2018-07-11T00:54:26.681Z,1029.61
2018-07-11T00:55:26.675Z,1029.59
2018-07-11T00:56:26.669Z,1029.59
2018-07-11T00:57:26.663Z,1029.61
2018-07-11T00:58:26.658Z,1029.6
2018-07-11T00:59:26.653Z,1029.61
2018-07-11T01:00:26.648Z,1029.62
2018-07-11T01:01:26.642Z,1029.63
2018-07-11T01:02:26.639Z,1029.65
2018-07-11T01:03:26.635Z,1029.68
2018-07-11T01:04:26.626Z,1029.67
2018-07-11T01:05:26.622Z,1029.68
2018-07-11T01:06:26.616Z,1029.74
2018-07-11T01:07:26.610Z,1029.76
2018-07-11T01:08:26.604Z,1029.79
2018-07-11T01:09:26.599Z,1029.83
2018-07-11T01:10:26.594Z,1029.82
2018-07-11T01:11:26.587Z,1029.92
2018-07-11T01:12:26.583Z,1029.94
2018-07-11T01:13:26.577Z,1030
2018-07-11T01:14:26.570Z,1030.04
2018-07-11T01:15:26.566Z,1030.05
2018-07-11T01:16:26.561Z,1030.08
2018-07-11T01:17:26.558Z,1030.11
2018-07-11T01:18:26.551Z,1030.13
2018-07-11T01:19:26.542Z,1030.12
2018-07-11T01:20:26.538Z,1030.12
2018-07-11T01:21:26.532Z,1030.19
2018-07-11T01:22:26.526Z,1030.21
2018-07-11T01:23:26.520Z,1030.18
2018-07-11T01:24:26.514Z,1030.18
2018-07-11T01:25:26.509Z,1030.19
2018-07-11T01:26:26.502Z,1030.18
2018-07-11T01:27:26.498Z,1030.15
2018-07-11T01:28:26.491Z,1030.19
2018-07-11T01:29:26.484Z,1030.18
2018-07-11T01:30:26.479Z,1030.17
2018-07-11T01:31:26.480Z,1030.19
2018-07-11T01:32:26.469Z,1030.2
2018-07-11T01:33:26.462Z,1030.24
2018-07-11T01:34:26.457Z,1030.24
2018-07-11T01:35:26.452Z,1030.26
2018-07-11T01:36:26.460Z,1030.25
2018-07-11T01:37:26.442Z,1030.26
2018-07-11T01:38:26.433Z,1030.28
2018-07-11T01:39:26.427Z,1030.25
2018-07-11T01:40:26.421Z,1030.27
2018-07-11T01:41:26.415Z,1030.27
2018-07-11T01:42:26.411Z,1030.26
2018-07-11T01:43:26.405Z,1030.26
2018-07-11T01:44:26.399Z,1030.32
2018-07-11T01:45:26.398Z,1030.35
2018-07-11T01:46:26.385Z,1030.32
2018-07-11T01:47:26.378Z,1030.29
2018-07-11T01:48:26.372Z,1030.32
2018-07-11T01:49:26.366Z,1030.36
2018-07-11T01:50:26.360Z,1030.39
2018-07-11T01:51:26.355Z,1030.37
2018-07-11T01:52:26.348Z,1030.39
2018-07-11T01:53:26.350Z,1030.39
2018-07-11T01:54:26.336Z,1030.41
2018-07-11T01:55:26.329Z,1030.43
2018-07-11T01:56:26.323Z,1030.43
2018-07-11T01:57:26.317Z,1030.45
2018-07-11T01:58:26.310Z,1030.47
2018-07-11T01:59:26.307Z,1030.41
2018-07-11T02:00:26.299Z,1030.44
2018-07-11T02:01:26.292Z,1030.43
2018-07-11T02:02:26.295Z,1030.44
2018-07-11T02:03:26.280Z,1030.46
2018-07-11T02:04:26.273Z,1030.45
2018-07-11T02:05:26.266Z,1030.46
2018-07-11T02:06:26.260Z,1030.49
2018-07-11T02:07:26.255Z,1030.48
2018-07-11T02:08:26.254Z,1030.46
2018-07-11T02:09:26.241Z,1030.44
2018-07-11T02:10:26.235Z,1030.46
2018-07-11T02:11:26.229Z,1030.48
2018-07-11T02:12:26.223Z,1030.5
2018-07-11T02:13:26.216Z,1030.49
2018-07-11T02:14:26.209Z,1030.43
2018-07-11T02:15:26.213Z,1030.43
2018-07-11T02:16:26.199Z,1030.37
2018-07-11T02:17:26.191Z,1030.38
2018-07-11T02:18:26.185Z,1030.36
2018-07-11T02:19:26.178Z,1030.36
2018-07-11T02:20:26.176Z,1030.33
2018-07-11T02:21:26.166Z,1030.32
2018-07-11T02:22:26.159Z,1030.3
2018-07-11T02:23:26.153Z,1030.32
2018-07-11T02:24:26.148Z,1030.33
2018-07-11T02:25:26.140Z,1030.31
2018-07-11T02:26:26.134Z,1030.33
2018-07-11T02:27:26.126Z,1030.32
2018-07-11T02:28:26.124Z,1030.32
2018-07-11T02:29:26.117Z,1030.34
2018-07-11T02:30:26.109Z,1030.26
2018-07-11T02:31:26.103Z,1030.25
2018-07-11T02:32:26.096Z,1030.23
2018-07-11T02:33:26.093Z,1030.13
2018-07-11T02:34:26.083Z,1030.13
2018-07-11T02:35:26.076Z,1030.09
2018-07-11T02:36:26.070Z,1030.03
2018-07-11T02:37:26.065Z,1029.98
2018-07-11T02:38:26.058Z,1029.93
2018-07-11T02:39:26.052Z,1029.88
2018-07-11T02:40:26.045Z,1029.82
2018-07-11T02:41:26.039Z,1029.83
2018-07-11T02:42:26.032Z,1029.81
2018-07-11T02:43:26.035Z,1029.8
2018-07-11T02:44:26.025Z,1029.78
2018-07-11T02:45:26.015Z,1029.8
2018-07-11T02:46:26.011Z,1029.78
2018-07-11T02:47:26.001Z,1029.75
2018-07-11T02:48:25.996Z,1029.74
2018-07-11T02:49:25.989Z,1029.81
2018-07-11T02:50:25.983Z,1029.76
2018-07-11T02:51:25.979Z,1029.77
2018-07-11T02:52:25.973Z,1029.79
2018-07-11T02:53:25.976Z,1029.79
2018-07-11T02:54:25.959Z,1029.82
2018-07-11T02:55:25.954Z,1029.8
2018-07-11T02:56:25.947Z,1029.81
2018-07-11T02:57:25.940Z,1029.82
2018-07-11T02:58:25.934Z,1029.81
2018-07-11T02:59:25.929Z,1029.78
2018-07-11T03:00:25.922Z,1029.78
2018-07-11T03:01:25.919Z,1029.71
2018-07-11T03:02:25.916Z,1029.71
2018-07-11T03:03:25.905Z,1029.64
2018-07-11T03:04:25.898Z,1029.67
2018-07-11T03:05:25.895Z,1029.7
2018-07-11T03:06:25.888Z,1029.73
2018-07-11T03:07:25.890Z,1029.76
2018-07-11T03:08:25.875Z,1029.79
2018-07-11T03:09:25.871Z,1029.82
2018-07-11T03:10:25.864Z,1029.81
2018-07-11T03:11:25.857Z,1029.81
2018-07-11T03:12:25.851Z,1029.77
2018-07-11T03:13:25.847Z,1029.73
2018-07-11T03:14:25.839Z,1029.72
2018-07-11T03:15:25.833Z,1029.7
2018-07-11T03:16:25.833Z,1029.68
2018-07-11T03:17:25.825Z,1029.64
2018-07-11T03:18:25.815Z,1029.68
2018-07-11T03:19:25.809Z,1029.64
2018-07-11T03:20:25.804Z,1029.66
2018-07-11T03:21:25.801Z,1029.67
2018-07-11T03:22:25.792Z,1029.66
2018-07-11T03:23:26.036Z,1029.68
2018-07-11T03:24:25.785Z,1029.72
2018-07-11T03:25:25.774Z,1029.69
2018-07-11T03:26:25.767Z,1029.76
2018-07-11T03:27:25.761Z,1029.74
2018-07-11T03:28:25.756Z,1029.78
2018-07-11T03:29:25.750Z,1029.78
2018-07-11T03:30:25.745Z,1029.77
2018-07-11T03:31:25.740Z,1029.78
2018-07-11T03:32:25.743Z,1029.74
2018-07-11T03:33:25.726Z,1029.74
2018-07-11T03:34:25.721Z,1029.73
2018-07-11T03:35:25.715Z,1029.71
2018-07-11T03:36:25.709Z,1029.71
2018-07-11T03:37:25.706Z,1029.71
2018-07-11T03:38:25.697Z,1029.7
2018-07-11T03:39:25.695Z,1029.67
2018-07-11T03:40:25.685Z,1029.63
2018-07-11T03:41:25.680Z,1029.62
2018-07-11T03:42:25.674Z,1029.61
2018-07-11T03:43:25.668Z,1029.63
2018-07-11T03:44:25.662Z,1029.69
2018-07-11T03:45:25.660Z,1029.67
2018-07-11T03:46:25.651Z,1029.66
2018-07-11T03:47:25.645Z,1029.65
2018-07-11T03:48:25.643Z,1029.65
2018-07-11T03:49:25.633Z,1029.67
2018-07-11T03:50:25.631Z,1029.6
2018-07-11T03:51:25.621Z,1029.54
2018-07-11T03:52:25.616Z,1029.52
2018-07-11T03:53:25.612Z,1029.49
2018-07-11T03:54:25.605Z,1029.47
2018-07-11T03:55:25.603Z,1029.48
2018-07-11T03:56:25.593Z,1029.43
2018-07-11T03:57:25.588Z,1029.48
2018-07-11T03:58:25.582Z,1029.42
2018-07-11T03:59:25.576Z,1029.38
2018-07-11T04:00:25.570Z,1029.33
2018-07-11T04:01:25.565Z,1029.35
2018-07-11T04:02:25.558Z,1029.29
2018-07-11T04:03:25.554Z,1029.31
2018-07-11T04:04:25.548Z,1029.26
2018-07-11T04:05:25.543Z,1029.23
2018-07-11T04:06:25.537Z,1029.2
2018-07-11T04:07:25.532Z,1029.18
2018-07-11T04:08:25.526Z,1029.14
2018-07-11T04:09:25.521Z,1029.06
2018-07-11T04:10:25.515Z,1029.04
2018-07-11T04:11:25.511Z,1029
2018-07-11T04:12:25.505Z,1028.99
2018-07-11T04:13:25.500Z,1028.92
2018-07-11T04:14:25.494Z,1028.92
2018-07-11T04:15:25.489Z,1028.88
2018-07-11T04:16:25.497Z,1028.85
2018-07-11T04:17:25.478Z,1028.82
2018-07-11T04:18:25.474Z,1028.8
2018-07-11T04:19:25.468Z,1028.77
2018-07-11T04:20:25.464Z,1028.73
2018-07-11T04:21:25.458Z,1028.69
2018-07-11T04:22:25.470Z,1028.66
2018-07-11T04:23:25.449Z,1028.66
2018-07-11T04:24:25.443Z,1028.66
2018-07-11T04:25:25.439Z,1028.61
2018-07-11T04:26:25.433Z,1028.64
2018-07-11T04:27:25.434Z,1028.55
2018-07-11T04:28:25.423Z,1028.49
2018-07-11T04:29:25.435Z,1028.45
2018-07-11T04:30:25.414Z,1028.44
2018-07-11T04:31:25.410Z,1028.47
2018-07-11T04:32:25.405Z,1028.47
2018-07-11T04:33:25.421Z,1028.45
2018-07-11T04:34:25.397Z,1028.42
2018-07-11T04:35:25.391Z,1028.32
2018-07-11T04:36:25.387Z,1028.3
2018-07-11T04:37:25.383Z,1028.29
2018-07-11T04:38:25.378Z,1028.29
2018-07-11T04:39:25.375Z,1028.26
2018-07-11T04:40:25.370Z,1028.25
2018-07-11T04:41:25.367Z,1028.26
2018-07-11T04:42:25.430Z,1028.24
2018-07-11T04:43:25.360Z,1028.21
2018-07-11T04:44:25.353Z,1028.17
2018-07-11T04:45:25.350Z,1028.18
2018-07-11T04:46:25.345Z,1028.18
2018-07-11T04:47:25.341Z,1028.14
2018-07-11T04:48:25.337Z,1028.15
2018-07-11T04:49:25.342Z,1028.2
2018-07-11T04:50:25.342Z,1028.19
2018-07-11T04:51:25.324Z,1028.21
2018-07-11T04:52:25.321Z,1028.2
2018-07-11T04:53:25.316Z,1028.23
2018-07-11T04:54:25.312Z,1028.17
2018-07-11T04:55:25.309Z,1028.13
2018-07-11T04:56:25.305Z,1028.1
2018-07-11T04:57:25.303Z,1028.03
2018-07-11T04:58:25.298Z,1027.95
2018-07-11T04:59:25.295Z,1027.93
2018-07-11T05:00:25.291Z,1027.88
2018-07-11T05:01:25.286Z,1027.78
2018-07-11T05:02:25.282Z,1027.7
2018-07-11T05:03:25.278Z,1027.63
2018-07-11T05:04:25.274Z,1027.6
2018-07-11T05:05:25.272Z,1027.51
2018-07-11T05:06:25.268Z,1027.47
2018-07-11T05:07:25.264Z,1027.38
2018-07-11T05:08:25.260Z,1027.32
2018-07-11T05:09:25.280Z,1027.24
2018-07-11T05:10:25.253Z,1027.25
2018-07-11T05:11:25.251Z,1027.17
2018-07-11T05:12:25.246Z,1027.2
2018-07-11T05:13:25.246Z,1027.18
2018-07-11T05:14:25.240Z,1027.16
2018-07-11T05:15:25.236Z,1027.13
2018-07-11T05:16:25.233Z,1027.11
2018-07-11T05:17:25.231Z,1026.99
2018-07-11T05:18:25.411Z,1026.89
2018-07-11T05:19:25.223Z,1026.89
2018-07-11T05:20:25.222Z,1026.84
2018-07-11T05:21:25.218Z,1026.77
2018-07-11T05:22:25.219Z,1026.74
2018-07-11T05:23:25.212Z,1026.56
2018-07-11T05:24:25.209Z,1026.36
2018-07-11T05:25:25.208Z,1026.33
2018-07-11T05:26:25.205Z,1026.04
2018-07-11T05:27:25.202Z,1025.95
2018-07-11T05:28:25.204Z,1025.87
2018-07-11T05:29:25.210Z,1025.89
2018-07-11T05:30:25.195Z,1025.81
2018-07-11T05:31:25.194Z,1025.8
2018-07-11T05:32:25.192Z,1025.64
2018-07-11T05:33:25.192Z,1024.95
2018-07-11T05:34:25.188Z,1024.7
2018-07-11T05:35:25.188Z,1024.5
2018-07-11T05:36:25.254Z,1024.22
2018-07-11T05:37:25.187Z,1024.22
2018-07-11T05:38:25.187Z,1024.31
2018-07-11T05:39:25.188Z,1023.95
2018-07-11T05:40:25.189Z,1024.2
2018-07-11T05:41:25.193Z,1024.03
2018-07-11T05:42:25.221Z,1023.78
2018-07-11T05:43:25.193Z,1023.93
2018-07-11T05:44:25.195Z,1024.15
2018-07-11T05:45:25.196Z,1024.27
2018-07-11T05:46:25.201Z,1024.41
2018-07-11T05:47:25.201Z,1024.44
2018-07-11T05:48:25.203Z,1024.39
2018-07-11T05:49:25.205Z,1024.42
2018-07-11T05:50:25.209Z,1024.48
2018-07-11T05:51:25.212Z,1024.49
2018-07-11T05:52:25.216Z,1024.58
2018-07-11T05:53:25.217Z,1024.59
2018-07-11T05:54:25.220Z,1024.68
2018-07-11T05:55:25.223Z,1024.7
2018-07-11T05:56:25.232Z,1024.75
2018-07-11T05:57:25.228Z,1024.78
2018-07-11T05:58:25.232Z,1024.79
2018-07-11T05:59:25.240Z,1024.82
2018-07-11T06:00:25.237Z,1024.84
2018-07-11T06:01:25.240Z,1024.82
2018-07-11T06:02:25.243Z,1024.83
2018-07-11T06:03:25.246Z,1024.86
2018-07-11T06:04:25.249Z,1024.93
2018-07-11T06:05:25.304Z,1025.02
2018-07-11T06:06:25.256Z,1025.09
2018-07-11T06:07:25.257Z,1025.13
2018-07-11T06:08:25.261Z,1025.16
2018-07-11T06:09:25.265Z,1025.18
2018-07-11T06:10:25.266Z,1025.2
2018-07-11T06:11:25.268Z,1025.25
2018-07-11T06:12:25.272Z,1025.31
2018-07-11T06:13:25.436Z,1025.36
2018-07-11T06:14:25.276Z,1025.4
2018-07-11T06:15:25.280Z,1025.42
2018-07-11T06:16:25.315Z,1025.44
2018-07-11T06:17:25.285Z,1025.4
2018-07-11T06:18:25.312Z,1025.4
2018-07-11T06:19:25.291Z,1025.36
2018-07-11T06:20:25.313Z,1025.35
2018-07-11T06:21:25.295Z,1025.31
2018-07-11T06:22:25.297Z,1025.23
2018-07-11T06:23:25.301Z,1025.29
2018-07-11T06:24:25.303Z,1025.23
2018-07-11T06:25:25.304Z,1025.1
2018-07-11T06:26:25.319Z,1025.05
2018-07-11T06:27:25.327Z,1024.98
2018-07-11T06:28:25.312Z,1024.95
2018-07-11T06:29:25.314Z,1024.84
2018-07-11T06:30:25.318Z,1024.61
2018-07-11T06:31:25.321Z,1024.5
2018-07-11T06:32:25.329Z,1024.38
2018-07-11T06:33:25.377Z,1024.3
2018-07-11T06:34:25.329Z,1024.27
2018-07-11T06:35:25.333Z,1024.22
2018-07-11T06:36:25.337Z,1024.27
2018-07-11T06:37:25.391Z,1024.22
2018-07-11T06:38:25.345Z,1024.21
2018-07-11T06:39:25.422Z,1024.22
2018-07-11T06:40:25.348Z,1024.29
2018-07-11T06:41:25.353Z,1024.35
2018-07-11T06:42:25.357Z,1024.39
2018-07-11T06:43:25.359Z,1024.43
2018-07-11T06:44:25.373Z,1024.6
2018-07-11T06:45:25.367Z,1024.64
2018-07-11T06:46:25.371Z,1024.68
2018-07-11T06:47:25.375Z,1024.71
2018-07-11T06:48:25.379Z,1024.66
2018-07-11T06:49:25.385Z,1024.62
2018-07-11T06:50:25.386Z,1024.55
2018-07-11T06:51:25.388Z,1024.44
2018-07-11T06:52:25.392Z,1024.32
2018-07-11T06:53:25.399Z,1024.15
2018-07-11T06:54:25.409Z,1024.06
2018-07-11T06:55:25.405Z,1023.99
2018-07-11T06:56:25.407Z,1023.9
2018-07-11T06:57:25.449Z,1023.84
2018-07-11T06:58:25.416Z,1023.76
2018-07-11T06:59:25.421Z,1023.7
2018-07-11T07:00:25.424Z,1023.67
2018-07-11T07:01:25.678Z,1023.68
2018-07-11T07:02:25.441Z,1023.59
2018-07-11T07:03:25.496Z,1023.36
2018-07-11T07:04:25.447Z,1023.27
2018-07-11T07:05:25.446Z,1023.28
2018-07-11T07:06:25.450Z,1023.31
2018-07-11T07:07:25.456Z,1023.31
2018-07-11T07:08:25.473Z,1023.3
2018-07-11T07:09:25.481Z,1023.19
2018-07-11T07:10:25.471Z,1022.99
2018-07-11T07:11:25.476Z,1022.67
2018-07-11T07:12:25.483Z,1022.39
2018-07-11T07:13:25.492Z,1021.79
2018-07-11T07:14:25.496Z,1021.44
2018-07-11T07:15:25.501Z,1021.07
2018-07-11T07:16:25.564Z,1020.78
2018-07-11T07:17:25.525Z,1020.54
2018-07-11T07:18:25.525Z,1020.11
2018-07-11T07:19:25.535Z,1020.3
2018-07-11T07:20:25.547Z,1019.99
2018-07-11T07:21:25.553Z,1020.72
2018-07-11T07:22:25.625Z,1020.92
2018-07-11T07:23:25.573Z,1020.73
2018-07-11T07:24:25.584Z,1020.5
2018-07-11T07:25:25.597Z,1020.11
2018-07-11T07:26:25.607Z,1020.02
2018-07-11T07:27:25.618Z,1019.86
2018-07-11T07:28:25.630Z,1019.52
2018-07-11T07:29:25.647Z,1020.24
2018-07-11T07:30:25.657Z,1019.87
2018-07-11T07:31:25.682Z,1019.51
2018-07-11T07:32:25.683Z,1019.35
2018-07-11T07:33:25.696Z,1019.35
2018-07-11T07:34:25.709Z,1019.21
2018-07-11T07:35:25.729Z,1018.29
2018-07-11T07:36:25.740Z,1019.28
2018-07-11T07:37:25.756Z,1019.84
2018-07-11T07:38:25.795Z,1020.6
2018-07-11T07:39:25.790Z,1021.38
2018-07-11T07:40:25.806Z,1021.86
2018-07-11T07:41:25.813Z,1022.28
2018-07-11T07:42:25.829Z,1022.58
2018-07-11T07:43:25.857Z,1022.97
2018-07-11T07:44:25.857Z,1023.3
2018-07-11T07:45:25.867Z,1023.62
2018-07-11T07:46:25.883Z,1023.82
2018-07-11T07:47:25.892Z,1024.03
2018-07-11T07:48:25.904Z,1024.15
2018-07-11T07:49:25.914Z,1024.28
2018-07-11T07:50:25.926Z,1024.42
2018-07-11T07:51:25.938Z,1024.5
2018-07-11T07:52:25.950Z,1024.71
2018-07-11T07:53:25.960Z,1024.89
2018-07-11T07:54:25.970Z,1024.97
2018-07-11T07:55:25.981Z,1025.06
2018-07-11T07:56:25.990Z,1025.16
2018-07-11T07:57:26.000Z,1025.25
2018-07-11T07:58:26.007Z,1025.32
2018-07-11T07:59:26.018Z,1025.37
2018-07-11T08:00:26.069Z,1025.39
2018-07-11T08:01:26.039Z,1023.38
2018-07-11T08:02:26.044Z,1023.76
2018-07-11T08:03:26.051Z,1024.07
2018-07-11T08:04:26.060Z,1024.25
2018-07-11T08:05:26.068Z,1024.43
2018-07-11T08:06:26.074Z,1024.52
2018-07-11T08:07:26.083Z,1024.72
2018-07-11T08:08:26.090Z,1024.84
2018-07-11T08:09:26.101Z,1025.01
2018-07-11T08:10:26.107Z,1025.09
2018-07-11T08:11:26.113Z,1025.15
2018-07-11T08:12:26.123Z,1025.24
2018-07-11T08:13:26.130Z,1025.34
2018-07-11T08:14:26.143Z,1025.45
2018-07-11T08:15:26.144Z,1025.55
2018-07-11T08:16:26.161Z,1025.59
2018-07-11T08:17:26.160Z,1025.61
2018-07-11T08:18:26.164Z,1025.62
2018-07-11T08:19:26.176Z,1025.61
2018-07-11T08:20:26.176Z,1025.57
2018-07-11T08:21:26.208Z,1025.53
2018-07-11T08:22:26.188Z,1025.53
2018-07-11T08:23:26.198Z,1025.51
2018-07-11T08:24:26.203Z,1025.42
2018-07-11T08:25:26.222Z,1025.45
2018-07-11T08:26:26.227Z,1025.42
2018-07-11T08:27:26.258Z,1025.5
2018-07-11T08:28:26.224Z,1025.28
2018-07-11T08:29:26.245Z,1025.47
2018-07-11T08:30:26.249Z,1025.4
2018-07-11T08:31:26.242Z,1025.76
2018-07-11T08:32:26.251Z,1025.96
2018-07-11T08:33:26.252Z,1026.15
2018-07-11T08:34:26.257Z,1026.21
2018-07-11T08:35:26.263Z,1026.22
2018-07-11T08:36:26.268Z,1026.15
2018-07-11T08:37:26.276Z,1025.07
2018-07-11T08:38:26.278Z,1024.56
2018-07-11T08:39:26.282Z,1024.51
2018-07-11T08:40:26.289Z,1023.91
2018-07-11T08:41:26.292Z,1024.27
2018-07-11T08:42:26.300Z,1024.64
2018-07-11T08:43:26.303Z,1024.92
2018-07-11T08:44:26.310Z,1025.13
2018-07-11T08:45:26.313Z,1025.42
2018-07-11T08:46:26.333Z,1025.63
2018-07-11T08:47:26.324Z,1025.78
2018-07-11T08:48:26.331Z,1025.94
2018-07-11T08:49:26.335Z,1026
2018-07-11T08:50:26.345Z,1026.07
2018-07-11T08:51:26.345Z,1026.13
2018-07-11T08:52:26.351Z,1026.07
2018-07-11T08:53:26.356Z,1025.77
2018-07-11T08:54:26.377Z,1025.89
2018-07-11T08:55:26.368Z,1025.95
2018-07-11T08:56:26.371Z,1026
2018-07-11T08:57:26.386Z,1025.92
2018-07-11T08:58:26.387Z,1025.78
2018-07-11T08:59:26.385Z,1025.75
2018-07-11T09:00:26.391Z,1025.85
2018-07-11T09:01:26.396Z,1025.85
2018-07-11T09:02:26.399Z,1025.87
2018-07-11T09:03:26.404Z,1025.89
2018-07-11T09:04:26.412Z,1025.86
2018-07-11T09:05:26.418Z,1025.9
2018-07-11T09:06:26.419Z,1025.9
2018-07-11T09:07:26.423Z,1025.96
2018-07-11T09:08:26.427Z,1026.02
2018-07-11T09:09:26.434Z,1026.07
2018-07-11T09:10:26.476Z,1025.97
2018-07-11T09:11:26.441Z,1025.88
2018-07-11T09:12:26.452Z,1025.75
2018-07-11T09:13:26.456Z,1025.59
2018-07-11T09:14:26.455Z,1025.44
2018-07-11T09:15:26.465Z,1025.25
2018-07-11T09:16:26.464Z,1025.18
2018-07-11T09:17:26.469Z,1025
2018-07-11T09:18:26.479Z,1024.85
2018-07-11T09:19:26.481Z,1024.68
2018-07-11T09:20:26.485Z,1024.59
2018-07-11T09:21:26.491Z,1024.55
2018-07-11T09:22:26.502Z,1024.49
2018-07-11T09:23:26.498Z,1024.49
2018-07-11T09:24:26.687Z,1024.49
2018-07-11T09:25:26.509Z,1024.46
2018-07-11T09:26:26.515Z,1024.45
2018-07-11T09:27:26.521Z,1024.44
2018-07-11T09:28:26.526Z,1024.45
2018-07-11T09:29:26.532Z,1024.44
2018-07-11T09:30:26.552Z,1024.45
2018-07-11T09:31:26.559Z,1024.47
2018-07-11T09:32:26.551Z,1024.47
2018-07-11T09:33:26.556Z,1024.47
2018-07-11T09:34:26.567Z,1024.54
2018-07-11T09:35:26.568Z,1024.5
2018-07-11T09:36:26.576Z,1024.53
2018-07-11T09:37:26.849Z,1024.56
2018-07-11T09:38:26.597Z,1024.62
2018-07-11T09:39:26.599Z,1024.69
2018-07-11T09:40:26.599Z,1024.79
2018-07-11T09:41:26.617Z,1024.91
2018-07-11T09:42:26.610Z,1024.91
2018-07-11T09:43:26.617Z,1024.92
2018-07-11T09:44:26.627Z,1024.94
2018-07-11T09:45:26.680Z,1024.91
2018-07-11T09:46:26.649Z,1024.93
2018-07-11T09:47:26.642Z,1024.86
2018-07-11T09:48:26.648Z,1024.91
2018-07-11T09:49:26.654Z,1024.89
2018-07-11T09:50:26.660Z,1024.87
2018-07-11T09:51:26.666Z,1024.89
2018-07-11T09:52:26.674Z,1024.87
2018-07-11T09:53:26.677Z,1024.92
2018-07-11T09:54:26.684Z,1024.89
2018-07-11T09:55:26.690Z,1024.9
2018-07-11T09:56:26.698Z,1024.89
2018-07-11T09:57:26.709Z,1024.92
2018-07-11T09:58:26.724Z,1024.96
2018-07-11T09:59:26.713Z,1025.06
2018-07-11T10:00:26.721Z,1025.14
2018-07-11T10:01:26.736Z,1025.19
2018-07-11T10:02:26.734Z,1025.32
2018-07-11T10:03:26.737Z,1025.37
2018-07-11T10:04:26.742Z,1025.44
2018-07-11T10:05:26.750Z,1025.38
2018-07-11T10:06:26.753Z,1025.48
2018-07-11T10:07:26.760Z,1025.63
2018-07-11T10:08:26.764Z,1025.7
2018-07-11T10:09:26.771Z,1025.81
2018-07-11T10:10:26.775Z,1026.02
2018-07-11T10:11:26.779Z,1026.17
2018-07-11T10:12:26.841Z,1026.26
2018-07-11T10:13:26.790Z,1026.38
2018-07-11T10:14:26.802Z,1026.43
2018-07-11T10:15:26.798Z,1026.46
2018-07-11T10:16:26.803Z,1026.44
2018-07-11T10:17:26.816Z,1026.54
2018-07-11T10:18:26.814Z,1026.56
2018-07-11T10:19:26.816Z,1026.59
2018-07-11T10:20:26.819Z,1026.55
2018-07-11T10:21:26.825Z,1026.49
2018-07-11T10:22:26.827Z,1026.55
2018-07-11T10:23:26.833Z,1026.47
2018-07-11T10:24:26.847Z,1026.47
2018-07-11T10:25:26.838Z,1026.51
2018-07-11T10:26:26.841Z,1026.52
2018-07-11T10:27:26.844Z,1026.54
2018-07-11T10:28:27.051Z,1026.53
2018-07-11T10:29:26.851Z,1026.63
2018-07-11T10:30:26.855Z,1026.65
2018-07-11T10:31:26.857Z,1026.61
2018-07-11T10:32:26.860Z,1026.51
2018-07-11T10:33:26.862Z,1026.54
2018-07-11T10:34:26.865Z,1026.56
2018-07-11T10:35:26.868Z,1026.52
2018-07-11T10:36:26.871Z,1026.54
2018-07-11T10:37:26.873Z,1026.49
2018-07-11T10:38:26.876Z,1026.44
2018-07-11T10:39:26.882Z,1026.32
2018-07-11T10:40:26.883Z,1026.38
2018-07-11T10:41:26.888Z,1026.41
2018-07-11T10:42:26.897Z,1026.5
2018-07-11T10:43:26.896Z,1026.56
2018-07-11T10:44:26.891Z,1026.55
2018-07-11T10:45:26.897Z,1026.57
2018-07-11T10:46:26.898Z,1026.57
2018-07-11T10:47:26.900Z,1026.45
2018-07-11T10:48:26.901Z,1026.42
2018-07-11T10:49:26.921Z,1026.32
2018-07-11T10:50:26.941Z,1026.22
2018-07-11T10:51:26.911Z,1026.17
2018-07-11T10:52:26.918Z,1026.15
2018-07-11T10:53:26.914Z,1026.17
2018-07-11T10:54:26.917Z,1026.25
2018-07-11T10:55:26.917Z,1026.21
2018-07-11T10:56:26.921Z,1026.21
2018-07-11T10:57:26.945Z,1026.16
2018-07-11T10:58:26.926Z,1026.11
2018-07-11T10:59:26.928Z,1026.12
2018-07-11T11:00:36.654Z,1026.14
2018-07-11T11:01:26.971Z,1026.15
2018-07-11T11:02:26.937Z,1026.15
2018-07-11T11:03:26.939Z,1026.13
2018-07-11T11:04:26.943Z,1026.02
2018-07-11T11:05:26.958Z,1026.04
2018-07-11T11:06:26.950Z,1025.96
2018-07-11T11:07:26.950Z,1025.86
2018-07-11T11:08:26.956Z,1025.71
2018-07-11T11:09:26.956Z,1025.58
2018-07-11T11:10:26.971Z,1025.47
2018-07-11T11:11:26.965Z,1025.31
2018-07-11T11:12:26.964Z,1025.16
2018-07-11T11:13:26.966Z,1025.12
2018-07-11T11:14:27.013Z,1025.02
2018-07-11T11:15:26.974Z,1024.89
2018-07-11T11:16:26.981Z,1024.87
2018-07-11T11:17:26.981Z,1024.78
2018-07-11T11:18:26.987Z,1024.7
2018-07-11T11:19:26.986Z,1024.61
2018-07-11T11:20:26.991Z,1024.57
2018-07-11T11:21:26.994Z,1024.62
2018-07-11T11:22:26.999Z,1024.63
2018-07-11T11:23:27.004Z,1024.61
2018-07-11T11:24:27.006Z,1024.57
2018-07-11T11:25:27.011Z,1024.59
2018-07-11T11:26:27.014Z,1024.62
2018-07-11T11:27:27.020Z,1024.67
2018-07-11T11:28:27.029Z,1024.7
2018-07-11T11:29:27.027Z,1024.82
2018-07-11T11:30:27.032Z,1024.75
2018-07-11T11:31:27.036Z,1024.81
2018-07-11T11:32:27.045Z,1024.83
2018-07-11T11:33:27.054Z,1024.91
2018-07-11T11:34:27.049Z,1024.98
2018-07-11T11:35:27.053Z,1024.97
2018-07-11T11:36:27.062Z,1025
2018-07-11T11:37:27.062Z,1025.15
2018-07-11T11:38:27.067Z,1025.16
2018-07-11T11:39:27.071Z,1025.2
2018-07-11T11:40:27.075Z,1025.26
2018-07-11T11:41:27.090Z,1025.29
2018-07-11T11:42:27.394Z,1025.35
2018-07-11T11:43:27.088Z,1025.36
2018-07-11T11:44:27.091Z,1025.38
2018-07-11T11:45:27.096Z,1025.41
2018-07-11T11:46:27.100Z,1025.49
2018-07-11T11:47:27.103Z,1025.55
2018-07-11T11:48:27.107Z,1025.58
2018-07-11T11:49:27.112Z,1025.64
2018-07-11T11:50:27.127Z,1025.69
2018-07-11T11:51:27.119Z,1025.7
2018-07-11T11:52:27.122Z,1025.75
2018-07-11T11:53:27.129Z,1025.76
2018-07-11T11:54:27.129Z,1025.72
2018-07-11T11:55:27.141Z,1025.67
2018-07-11T11:56:27.137Z,1025.66
2018-07-11T11:57:27.140Z,1025.64
2018-07-11T11:58:27.193Z,1025.57
2018-07-11T11:59:27.151Z,1025.56
2018-07-11T12:00:27.149Z,1025.53
2018-07-11T12:01:27.152Z,1025.53
2018-07-11T12:02:27.155Z,1025.42
2018-07-11T12:03:27.158Z,1025.35
2018-07-11T12:04:27.162Z,1025.23
2018-07-11T12:05:27.164Z,1025.16
2018-07-11T12:06:27.169Z,1025.14
2018-07-11T12:07:27.181Z,1025.05
2018-07-11T12:08:27.173Z,1024.94